sensor_id;sensor_type;location;lat;lon;timestamp;pressure;altitude;pressure_sealevel;temperature;humidity
59104;BME280;51449;51.676;5.812;2023-11-19T00:00:52;100797.91;;;13.67;100.00
59104;BME280;51449;51.676;5.812;2023-11-19T00:03:15;100800.78;;;13.70;100.00
59104;BME280;51449;51.676;5.812;2023-11-19T00:05:36;100794.06;;;13.72;100.00
59104;BME280;51449;51.676;5.812;2023-11-19T00:07:58;100786.22;;;13.74;100.00
59104;BME280;51449;51.676;5.812;2023-11-19T00:10:21;100781.47;;;13.74;100.00
59104;BME280;51449;51.676;5.812;2023-11-19T00:12:45;100780.69;;;13.74;100.00
59104;BME280;51449;51.676;5.812;2023-11-19T00:15:08;100783.06;;;13.75;100.00
59104;BME280;51449;51.676;5.812;2023-11-19T00:17:33;100780.41;;;13.79;100.00
59104;BME280;51449;51.676;5.812;2023-11-19T00:19:55;100779.97;;;13.77;99.88
59104;BME280;51449;51.676;5.812;2023-11-19T00:22:17;100779.63;;;13.78;99.96
59104;BME280;51449;51.676;5.812;2023-11-19T00:24:38;100760.69;;;13.80;99.59
59104;BME280;51449;51.676;5.812;2023-11-19T00:27:00;100750.84;;;13.83;99.75
59104;BME280;51449;51.676;5.812;2023-11-19T00:29:22;100744.16;;;13.84;99.43
59104;BME280;51449;51.676;5.812;2023-11-19T00:31:44;100741.38;;;13.84;99.12
59104;BME280;51449;51.676;5.812;2023-11-19T00:34:06;100754.03;;;13.85;99.25
59104;BME280;51449;51.676;5.812;2023-11-19T00:36:28;100753.63;;;13.83;99.32
59104;BME280;51449;51.676;5.812;2023-11-19T00:38:50;100741.72;;;13.82;99.52
59104;BME280;51449;51.676;5.812;2023-11-19T00:41:15;100748.97;;;13.87;99.25
59104;BME280;51449;51.676;5.812;2023-11-19T00:43:38;100747.38;;;13.86;99.21
59104;BME280;51449;51.676;5.812;2023-11-19T00:45:59;100733.13;;;13.87;98.92
59104;BME280;51449;51.676;5.812;2023-11-19T00:48:22;100739.97;;;13.90;99.00
59104;BME280;51449;51.676;5.812;2023-11-19T00:50:44;100741.56;;;13.91;98.83
59104;BME280;51449;51.676;5.812;2023-11-19T00:53:07;100734.84;;;13.92;98.56
59104;BME280;51449;51.676;5.812;2023-11-19T00:55:28;100742.81;;;13.94;98.39
59104;BME280;51449;51.676;5.812;2023-11-19T00:57:50;100738.06;;;13.94;97.73
59104;BME280;51449;51.676;5.812;2023-11-19T01:00:12;100734.50;;;13.94;97.97
59104;BME280;51449;51.676;5.812;2023-11-19T01:02:41;100737.59;;;13.92;97.75
59104;BME280;51449;51.676;5.812;2023-11-19T01:05:03;100736.81;;;13.91;97.57
59104;BME280;51449;51.676;5.812;2023-11-19T01:07:25;100739.13;;;13.89;97.76
59104;BME280;51449;51.676;5.812;2023-11-19T01:09:48;100746.28;;;13.90;97.87
59104;BME280;51449;51.676;5.812;2023-11-19T01:12:10;100750.66;;;13.91;97.61
59104;BME280;51449;51.676;5.812;2023-11-19T01:14:32;100734.56;;;13.97;97.57
59104;BME280;51449;51.676;5.812;2023-11-19T01:16:54;100741.72;;;13.98;96.99
59104;BME280;51449;51.676;5.812;2023-11-19T01:19:16;100744.94;;;14.00;96.96
59104;BME280;51449;51.676;5.812;2023-11-19T01:21:38;100733.47;;;14.02;96.72
59104;BME280;51449;51.676;5.812;2023-11-19T01:24:00;100733.47;;;14.02;96.43
59104;BME280;51449;51.676;5.812;2023-11-19T01:26:23;100743.03;;;14.04;96.20
59104;BME280;51449;51.676;5.812;2023-11-19T01:28:45;100732.69;;;14.01;95.72
59104;BME280;51449;51.676;5.812;2023-11-19T01:31:11;100729.91;;;14.01;95.87
59104;BME280;51449;51.676;5.812;2023-11-19T01:33:38;100733.94;;;14.04;95.56
59104;BME280;51449;51.676;5.812;2023-11-19T01:36:01;100721.72;;;14.05;95.48
59104;BME280;51449;51.676;5.812;2023-11-19T01:38:23;100719.00;;;14.08;95.05
59104;BME280;51449;51.676;5.812;2023-11-19T01:40:45;100713.91;;;14.10;95.01
59104;BME280;51449;51.676;5.812;2023-11-19T01:43:07;100715.16;;;14.13;94.64
59104;BME280;51449;51.676;5.812;2023-11-19T01:45:33;100715.16;;;14.13;94.54
59104;BME280;51449;51.676;5.812;2023-11-19T01:47:55;100702.47;;;14.12;94.45
59104;BME280;51449;51.676;5.812;2023-11-19T01:50:17;100712.72;;;14.11;94.25
59104;BME280;51449;51.676;5.812;2023-11-19T01:52:39;100717.03;;;14.09;94.13
59104;BME280;51449;51.676;5.812;2023-11-19T01:55:01;100722.94;;;14.07;94.16
59104;BME280;51449;51.676;5.812;2023-11-19T01:57:24;100711.78;;;14.04;93.77
59104;BME280;51449;51.676;5.812;2023-11-19T01:59:45;100714.91;;;14.02;94.07
59104;BME280;51449;51.676;5.812;2023-11-19T02:02:07;100725.28;;;14.05;94.17
59104;BME280;51449;51.676;5.812;2023-11-19T02:04:29;100713.28;;;14.01;93.94
59104;BME280;51449;51.676;5.812;2023-11-19T02:06:54;100711.69;;;14.00;93.90
59104;BME280;51449;51.676;5.812;2023-11-19T02:09:20;100714.47;;;14.00;93.90
59104;BME280;51449;51.676;5.812;2023-11-19T02:11:42;100714.91;;;14.02;93.65
59104;BME280;51449;51.676;5.812;2023-11-19T02:14:04;100700.63;;;14.00;93.75
59104;BME280;51449;51.676;5.812;2023-11-19T02:16:26;100700.63;;;14.00;93.67
59104;BME280;51449;51.676;5.812;2023-11-19T02:18:49;100697.75;;;13.97;93.22
59104;BME280;51449;51.676;5.812;2023-11-19T02:21:11;100711.53;;;13.93;93.02
59104;BME280;51449;51.676;5.812;2023-11-19T02:23:33;100704.38;;;13.92;92.79
59104;BME280;51449;51.676;5.812;2023-11-19T02:25:58;100700.34;;;13.89;92.94
59104;BME280;51449;51.676;5.812;2023-11-19T02:28:23;100707.53;;;13.90;92.74
59104;BME280;51449;51.676;5.812;2023-11-19T02:30:45;100712.25;;;13.90;92.42
59104;BME280;51449;51.676;5.812;2023-11-19T02:33:07;100705.03;;;13.85;92.17
59104;BME280;51449;51.676;5.812;2023-11-19T02:35:31;100706.63;;;13.86;92.33
59104;BME280;51449;51.676;5.812;2023-11-19T02:37:58;100693.56;;;13.87;91.81
59104;BME280;51449;51.676;5.812;2023-11-19T02:40:25;100701.81;;;13.83;91.82
59104;BME280;51449;51.676;5.812;2023-11-19T02:42:48;100691.88;;;13.82;91.45
59104;BME280;51449;51.676;5.812;2023-11-19T02:45:09;100687.50;;;13.81;91.53
59104;BME280;51449;51.676;5.812;2023-11-19T02:47:35;100699.31;;;13.78;91.22
59104;BME280;51449;51.676;5.812;2023-11-19T02:49:58;100706.81;;;13.78;91.05
59104;BME280;51449;51.676;5.812;2023-11-19T02:52:19;100705.53;;;13.75;91.46
59104;BME280;51449;51.676;5.812;2023-11-19T02:54:43;100693.41;;;13.80;91.27
59104;BME280;51449;51.676;5.812;2023-11-19T02:57:05;100710.38;;;13.78;90.97
59104;BME280;51449;51.676;5.812;2023-11-19T02:59:27;100711.09;;;13.75;90.51
59104;BME280;51449;51.676;5.812;2023-11-19T03:01:49;100707.06;;;13.73;89.51
59104;BME280;51449;51.676;5.812;2023-11-19T03:04:12;100701.97;;;13.75;89.29
59104;BME280;51449;51.676;5.812;2023-11-19T03:06:34;100707.50;;;13.75;88.51
59104;BME280;51449;51.676;5.812;2023-11-19T03:08:56;100711.09;;;13.75;87.83
59104;BME280;51449;51.676;5.812;2023-11-19T03:11:17;100709.13;;;13.76;87.64
59104;BME280;51449;51.676;5.812;2023-11-19T03:13:39;100710.38;;;13.78;86.97
59104;BME280;51449;51.676;5.812;2023-11-19T03:16:01;100712.78;;;13.80;86.34
59104;BME280;51449;51.676;5.812;2023-11-19T03:18:23;100713.59;;;13.80;86.44
59104;BME280;51449;51.676;5.812;2023-11-19T03:20:46;100704.13;;;13.81;86.25
59104;BME280;51449;51.676;5.812;2023-11-19T03:23:08;100714.41;;;13.81;86.31
59104;BME280;51449;51.676;5.812;2023-11-19T03:25:30;100702.09;;;13.78;86.30
59104;BME280;51449;51.676;5.812;2023-11-19T03:27:55;100700.84;;;13.76;86.03
59104;BME280;51449;51.676;5.812;2023-11-19T03:30:17;100709.75;;;13.69;85.88
59104;BME280;51449;51.676;5.812;2023-11-19T03:32:39;100715.13;;;13.62;86.25
59104;BME280;51449;51.676;5.812;2023-11-19T03:35:01;100712.50;;;13.53;86.64
59104;BME280;51449;51.676;5.812;2023-11-19T03:37:28;100702.63;;;13.52;86.55
59104;BME280;51449;51.676;5.812;2023-11-19T03:39:50;100702.16;;;13.50;86.38
59104;BME280;51449;51.676;5.812;2023-11-19T03:42:12;100699.22;;;13.43;86.15
59104;BME280;51449;51.676;5.812;2023-11-19T03:44:34;100694.66;;;13.35;86.13
59104;BME280;51449;51.676;5.812;2023-11-19T03:46:56;100695.38;;;13.32;86.48
59104;BME280;51449;51.676;5.812;2023-11-19T03:49:18;100709.91;;;13.28;86.46
59104;BME280;51449;51.676;5.812;2023-11-19T03:51:40;100692.66;;;13.19;86.50
59104;BME280;51449;51.676;5.812;2023-11-19T03:54:02;100690.22;;;13.18;86.63
59104;BME280;51449;51.676;5.812;2023-11-19T03:56:24;100689.69;;;13.12;86.71
59104;BME280;51449;51.676;5.812;2023-11-19T03:58:46;100683.25;;;13.08;86.60
59104;BME280;51449;51.676;5.812;2023-11-19T04:01:11;100704.84;;;13.02;86.76
59104;BME280;51449;51.676;5.812;2023-11-19T04:03:35;100697.16;;;12.96;86.99
59104;BME280;51449;51.676;5.812;2023-11-19T04:05:57;100702.16;;;12.90;86.15
59104;BME280;51449;51.676;5.812;2023-11-19T04:08:19;100699.63;;;12.85;86.01
59104;BME280;51449;51.676;5.812;2023-11-19T04:10:41;100691.69;;;12.83;85.82
59104;BME280;51449;51.676;5.812;2023-11-19T04:13:03;100688.47;;;12.81;85.39
59104;BME280;51449;51.676;5.812;2023-11-19T04:15:25;100699.19;;;12.83;85.24
59104;BME280;51449;51.676;5.812;2023-11-19T04:17:46;100706.22;;;12.80;85.17
59104;BME280;51449;51.676;5.812;2023-11-19T04:20:09;100713.00;;;12.83;84.87
59104;BME280;51449;51.676;5.812;2023-11-19T04:22:34;100708.53;;;12.78;84.92
59104;BME280;51449;51.676;5.812;2023-11-19T04:24:56;100717.06;;;12.73;84.69
59104;BME280;51449;51.676;5.812;2023-11-19T04:27:18;100713.13;;;12.74;84.76
59104;BME280;51449;51.676;5.812;2023-11-19T04:29:40;100714.50;;;12.80;84.66
59104;BME280;51449;51.676;5.812;2023-11-19T04:32:01;100721.28;;;12.83;84.44
59104;BME280;51449;51.676;5.812;2023-11-19T04:34:23;100719.22;;;12.80;84.34
59104;BME280;51449;51.676;5.812;2023-11-19T04:36:45;100726.25;;;12.77;84.43
59104;BME280;51449;51.676;5.812;2023-11-19T04:39:07;100727.66;;;12.71;84.58
59104;BME280;51449;51.676;5.812;2023-11-19T04:41:49;100739.88;;;12.70;84.62
59104;BME280;51449;51.676;5.812;2023-11-19T04:44:15;100737.09;;;12.70;84.69
59104;BME280;51449;51.676;5.812;2023-11-19T04:46:37;100728.16;;;12.61;84.75
59104;BME280;51449;51.676;5.812;2023-11-19T04:48:59;100737.13;;;12.58;84.96
59104;BME280;51449;51.676;5.812;2023-11-19T04:51:21;100728.84;;;12.58;84.76
59104;BME280;51449;51.676;5.812;2023-11-19T04:53:42;100727.25;;;12.57;84.43
59104;BME280;51449;51.676;5.812;2023-11-19T04:56:11;100734.75;;;12.56;84.35
59104;BME280;51449;51.676;5.812;2023-11-19T04:58:33;100730.72;;;12.54;83.86
59104;BME280;51449;51.676;5.812;2023-11-19T05:00:55;100734.28;;;12.54;83.38
59104;BME280;51449;51.676;5.812;2023-11-19T05:03:17;100741.66;;;12.50;83.34
59104;BME280;51449;51.676;5.812;2023-11-19T05:05:39;100738.88;;;12.50;83.12
59104;BME280;51449;51.676;5.812;2023-11-19T05:08:01;100743.03;;;12.56;82.84
59104;BME280;51449;51.676;5.812;2023-11-19T05:10:23;100740.16;;;12.53;82.62
59104;BME280;51449;51.676;5.812;2023-11-19T05:12:46;100729.66;;;12.58;82.79
59104;BME280;51449;51.676;5.812;2023-11-19T05:15:08;100732.31;;;12.55;82.76
59104;BME280;51449;51.676;5.812;2023-11-19T05:17:30;100733.94;;;12.56;82.71
59104;BME280;51449;51.676;5.812;2023-11-19T05:19:52;100729.47;;;12.51;82.75
59104;BME280;51449;51.676;5.812;2023-11-19T05:22:14;100729.78;;;12.50;82.97
59104;BME280;51449;51.676;5.812;2023-11-19T05:24:36;100737.53;;;12.44;82.61
59104;BME280;51449;51.676;5.812;2023-11-19T05:26:57;100732.09;;;12.48;82.76
59104;BME280;51449;51.676;5.812;2023-11-19T05:29:19;100738.88;;;12.50;82.81
59104;BME280;51449;51.676;5.812;2023-11-19T05:31:41;100738.88;;;12.50;82.60
59104;BME280;51449;51.676;5.812;2023-11-19T05:34:05;100736.03;;;12.47;82.77
59104;BME280;51449;51.676;5.812;2023-11-19T05:36:29;100733.16;;;12.43;82.72
59104;BME280;51449;51.676;5.812;2023-11-19T05:38:51;100740.53;;;12.39;83.13
59104;BME280;51449;51.676;5.812;2023-11-19T05:41:12;100731.19;;;12.43;82.52
59104;BME280;51449;51.676;5.812;2023-11-19T05:43:34;100727.97;;;12.41;82.71
59104;BME280;51449;51.676;5.812;2023-11-19T05:45:56;100741.44;;;12.43;82.78
59104;BME280;51449;51.676;5.812;2023-11-19T05:48:18;100741.44;;;12.43;82.58
59104;BME280;51449;51.676;5.812;2023-11-19T05:50:40;100738.22;;;12.41;82.70
59104;BME280;51449;51.676;5.812;2023-11-19T05:53:02;100747.66;;;12.40;82.65
59104;BME280;51449;51.676;5.812;2023-11-19T05:55:27;100745.94;;;12.35;82.70
59104;BME280;51449;51.676;5.812;2023-11-19T05:57:49;100752.25;;;12.36;82.86
59104;BME280;51449;51.676;5.812;2023-11-19T06:00:13;100743.09;;;12.32;82.94
59104;BME280;51449;51.676;5.812;2023-11-19T06:02:37;100749.06;;;12.34;83.23
59104;BME280;51449;51.676;5.812;2023-11-19T06:05:00;100747.78;;;12.31;82.75
59104;BME280;51449;51.676;5.812;2023-11-19T06:07:22;100754.59;;;12.34;82.40
59104;BME280;51449;51.676;5.812;2023-11-19T06:09:44;100755.84;;;12.36;82.42
59104;BME280;51449;51.676;5.812;2023-11-19T06:12:06;100753.75;;;12.33;82.01
59104;BME280;51449;51.676;5.812;2023-11-19T06:14:28;100749.28;;;12.29;81.85
59104;BME280;51449;51.676;5.812;2023-11-19T06:16:50;100750.53;;;12.31;82.03
59104;BME280;51449;51.676;5.812;2023-11-19T06:19:13;100752.50;;;12.31;81.82
59104;BME280;51449;51.676;5.812;2023-11-19T06:21:36;100745.00;;;12.31;81.40
59104;BME280;51449;51.676;5.812;2023-11-19T06:23:58;100752.16;;;12.32;81.68
59104;BME280;51449;51.676;5.812;2023-11-19T06:26:20;100743.41;;;12.30;81.66
59104;BME280;51449;51.676;5.812;2023-11-19T06:28:43;100745.25;;;12.26;81.39
59104;BME280;51449;51.676;5.812;2023-11-19T06:31:06;100743.31;;;12.27;81.37
59104;BME280;51449;51.676;5.812;2023-11-19T06:33:28;100740.09;;;12.25;81.13
59104;BME280;51449;51.676;5.812;2023-11-19T06:35:50;100749.19;;;12.25;81.32
59104;BME280;51449;51.676;5.812;2023-11-19T06:38:11;100738.84;;;12.22;81.50
59104;BME280;51449;51.676;5.812;2023-11-19T06:40:34;100738.25;;;12.16;81.65
59104;BME280;51449;51.676;5.812;2023-11-19T06:42:59;100751.25;;;12.16;81.76
59104;BME280;51449;51.676;5.812;2023-11-19T06:45:21;100738.72;;;12.18;81.67
59104;BME280;51449;51.676;5.812;2023-11-19T06:47:44;100740.56;;;12.14;81.81
59104;BME280;51449;51.676;5.812;2023-11-19T06:50:07;100743.34;;;12.14;82.21
59104;BME280;51449;51.676;5.812;2023-11-19T06:52:29;100744.13;;;12.15;82.29
59104;BME280;51449;51.676;5.812;2023-11-19T06:54:52;100757.81;;;12.11;82.43
59104;BME280;51449;51.676;5.812;2023-11-19T06:57:14;100765.63;;;12.09;82.71
59104;BME280;51449;51.676;5.812;2023-11-19T06:59:35;100759.69;;;12.07;82.99
59104;BME280;51449;51.676;5.812;2023-11-19T07:01:57;100766.47;;;12.10;83.13
59104;BME280;51449;51.676;5.812;2023-11-19T07:04:19;100767.25;;;12.10;83.15
59104;BME280;51449;51.676;5.812;2023-11-19T07:06:41;100778.66;;;12.09;83.21
59104;BME280;51449;51.676;5.812;2023-11-19T07:09:03;100778.53;;;12.05;83.07
59104;BME280;51449;51.676;5.812;2023-11-19T07:11:32;100790.84;;;12.08;83.17
59104;BME280;51449;51.676;5.812;2023-11-19T07:13:53;100795.22;;;12.09;83.01
59104;BME280;51449;51.676;5.812;2023-11-19T07:16:15;100783.69;;;12.07;83.18
59104;BME280;51449;51.676;5.812;2023-11-19T07:18:37;100796.25;;;12.04;83.19
59104;BME280;51449;51.676;5.812;2023-11-19T07:20:59;100798.19;;;12.04;83.12
59104;BME280;51449;51.676;5.812;2023-11-19T07:23:21;100805.22;;;12.01;83.04
59104;BME280;51449;51.676;5.812;2023-11-19T07:25:43;100798.91;;;12.01;83.33
59104;BME280;51449;51.676;5.812;2023-11-19T07:28:08;100801.75;;;12.04;83.36
59104;BME280;51449;51.676;5.812;2023-11-19T07:30:31;100806.63;;;12.07;83.26
59104;BME280;51449;51.676;5.812;2023-11-19T07:32:53;100795.13;;;12.05;83.19
59104;BME280;51449;51.676;5.812;2023-11-19T07:35:14;100807.44;;;12.08;82.95
59104;BME280;51449;51.676;5.812;2023-11-19T07:37:40;100810.19;;;12.08;83.31
59104;BME280;51449;51.676;5.812;2023-11-19T07:40:02;100817.53;;;12.16;83.14
59104;BME280;51449;51.676;5.812;2023-11-19T07:42:24;100818.81;;;12.18;82.95
59104;BME280;51449;51.676;5.812;2023-11-19T07:44:46;100828.34;;;12.21;82.61
59104;BME280;51449;51.676;5.812;2023-11-19T07:47:08;100818.94;;;12.22;82.40
59104;BME280;51449;51.676;5.812;2023-11-19T07:49:30;100818.94;;;12.22;82.26
59104;BME280;51449;51.676;5.812;2023-11-19T07:51:52;100824.09;;;12.24;82.35
59104;BME280;51449;51.676;5.812;2023-11-19T07:54:14;100820.66;;;12.27;82.10
59104;BME280;51449;51.676;5.812;2023-11-19T07:56:36;100827.47;;;12.29;81.87
59104;BME280;51449;51.676;5.812;2023-11-19T07:58:58;100829.84;;;12.31;81.66
59104;BME280;51449;51.676;5.812;2023-11-19T08:01:19;100811.78;;;12.33;81.70
59104;BME280;51449;51.676;5.812;2023-11-19T08:03:41;100813.66;;;12.29;81.71
59104;BME280;51449;51.676;5.812;2023-11-19T08:06:19;100818.47;;;12.32;81.82
59104;BME280;51449;51.676;5.812;2023-11-19T08:08:43;100822.50;;;12.35;81.50
59104;BME280;51449;51.676;5.812;2023-11-19T08:11:05;100824.56;;;12.38;81.46
59104;BME280;51449;51.676;5.812;2023-11-19T08:13:26;100826.28;;;12.42;81.32
59104;BME280;51449;51.676;5.812;2023-11-19T08:15:48;100823.28;;;12.48;81.35
59104;BME280;51449;51.676;5.812;2023-11-19T08:18:10;100834.81;;;12.50;80.85
59104;BME280;51449;51.676;5.812;2023-11-19T08:20:32;100835.16;;;12.48;81.03
59104;BME280;51449;51.676;5.812;2023-11-19T08:22:54;100836.19;;;12.56;80.75
59104;BME280;51449;51.676;5.812;2023-11-19T08:25:16;100824.91;;;12.61;80.65
59104;BME280;51449;51.676;5.812;2023-11-19T08:27:38;100830.75;;;12.72;80.75
59104;BME280;51449;51.676;5.812;2023-11-19T08:30:00;100823.84;;;12.78;80.31
59104;BME280;51449;51.676;5.812;2023-11-19T08:32:21;100824.66;;;12.78;80.21
59104;BME280;51449;51.676;5.812;2023-11-19T08:34:47;100825.44;;;12.79;80.28
59104;BME280;51449;51.676;5.812;2023-11-19T08:37:08;100828.66;;;12.81;79.57
59104;BME280;51449;51.676;5.812;2023-11-19T08:39:30;100830.63;;;12.80;79.90
59104;BME280;51449;51.676;5.812;2023-11-19T08:41:52;100825.53;;;12.82;79.67
59104;BME280;51449;51.676;5.812;2023-11-19T08:44:14;100827.25;;;12.87;79.56
59104;BME280;51449;51.676;5.812;2023-11-19T08:46:36;100830.94;;;12.91;79.25
59104;BME280;51449;51.676;5.812;2023-11-19T08:48:57;100826.78;;;12.97;79.44
59104;BME280;51449;51.676;5.812;2023-11-19T08:51:19;100818.59;;;13.01;79.17
59104;BME280;51449;51.676;5.812;2023-11-19T08:53:41;100830.44;;;13.01;79.05
59104;BME280;51449;51.676;5.812;2023-11-19T08:56:03;100834.00;;;13.02;78.91
59104;BME280;51449;51.676;5.812;2023-11-19T08:58:25;100831.72;;;13.04;78.63
59104;BME280;51449;51.676;5.812;2023-11-19T09:00:47;100835.63;;;13.03;78.79
59104;BME280;51449;51.676;5.812;2023-11-19T09:03:09;100835.41;;;13.08;78.84
59104;BME280;51449;51.676;5.812;2023-11-19T09:05:31;100839.31;;;13.07;78.52
59104;BME280;51449;51.676;5.812;2023-11-19T09:07:53;100837.44;;;13.11;78.33
59104;BME280;51449;51.676;5.812;2023-11-19T09:10:15;100838.63;;;13.10;78.41
59104;BME280;51449;51.676;5.812;2023-11-19T09:12:37;100830.78;;;13.12;78.71
59104;BME280;51449;51.676;5.812;2023-11-19T09:14:59;100836.75;;;13.14;78.52
59104;BME280;51449;51.676;5.812;2023-11-19T09:17:21;100832.84;;;13.15;78.46
59104;BME280;51449;51.676;5.812;2023-11-19T09:19:43;100835.16;;;13.13;78.57
59104;BME280;51449;51.676;5.812;2023-11-19T09:22:05;100829.34;;;13.18;78.86
59104;BME280;51449;51.676;5.812;2023-11-19T09:24:26;100836.16;;;13.21;78.77
59104;BME280;51449;51.676;5.812;2023-11-19T09:26:48;100832.25;;;13.22;78.86
59104;BME280;51449;51.676;5.812;2023-11-19T09:29:11;100848.13;;;13.25;78.69
59104;BME280;51449;51.676;5.812;2023-11-19T09:31:33;100842.94;;;13.23;78.92
59104;BME280;51449;51.676;5.812;2023-11-19T09:33:54;100840.31;;;13.27;78.81
59104;BME280;51449;51.676;5.812;2023-11-19T09:36:16;100842.25;;;13.26;78.23
59104;BME280;51449;51.676;5.812;2023-11-19T09:38:38;100825.66;;;13.26;78.51
59104;BME280;51449;51.676;5.812;2023-11-19T09:41:00;100827.03;;;13.33;78.80
59104;BME280;51449;51.676;5.812;2023-11-19T09:43:23;100828.44;;;13.26;78.19
59104;BME280;51449;51.676;5.812;2023-11-19T09:48:12;100829.88;;;13.36;78.25
59104;BME280;51449;51.676;5.812;2023-11-19T09:50:34;100832.78;;;13.40;78.37
59104;BME280;51449;51.676;5.812;2023-11-19T09:52:56;100825.25;;;13.40;77.83
59104;BME280;51449;51.676;5.812;2023-11-19T09:55:19;100834.94;;;13.46;77.73
59104;BME280;51449;51.676;5.812;2023-11-19T09:57:41;100831.31;;;13.58;78.25
59104;BME280;51449;51.676;5.812;2023-11-19T10:00:10;100825.59;;;13.67;78.03
59104;BME280;51449;51.676;5.812;2023-11-19T10:02:34;100835.75;;;13.63;77.27
59104;BME280;51449;51.676;5.812;2023-11-19T10:04:59;100832.56;;;13.61;77.09
59104;BME280;51449;51.676;5.812;2023-11-19T10:07:27;100841.28;;;13.63;77.07
59104;BME280;51449;51.676;5.812;2023-11-19T10:09:49;100826.06;;;13.69;77.26
59104;BME280;51449;51.676;5.812;2023-11-19T10:12:11;100816.56;;;13.70;77.05
59104;BME280;51449;51.676;5.812;2023-11-19T10:14:34;100820.25;;;13.74;77.15
59104;BME280;51449;51.676;5.812;2023-11-19T10:17:01;100821.59;;;13.80;76.59
59104;BME280;51449;51.676;5.812;2023-11-19T10:19:25;100822.94;;;13.86;76.52
59104;BME280;51449;51.676;5.812;2023-11-19T10:21:48;100815.63;;;13.94;75.78
59104;BME280;51449;51.676;5.812;2023-11-19T10:24:10;100804.38;;;14.03;75.32
59104;BME280;51449;51.676;5.812;2023-11-19T10:26:32;100808.56;;;14.12;75.11
59104;BME280;51449;51.676;5.812;2023-11-19T10:28:56;100810.25;;;14.17;75.05
59104;BME280;51449;51.676;5.812;2023-11-19T10:31:19;100812.75;;;14.22;74.63
59104;BME280;51449;51.676;5.812;2023-11-19T10:33:51;100811.25;;;14.25;74.29
59104;BME280;51449;51.676;5.812;2023-11-19T10:36:14;100816.50;;;14.30;74.33
59104;BME280;51449;51.676;5.812;2023-11-19T10:38:36;100817.41;;;14.34;74.37
59104;BME280;51449;51.676;5.812;2023-11-19T10:40:58;100818.53;;;14.33;73.52
59104;BME280;51449;51.676;5.812;2023-11-19T10:43:21;100808.97;;;14.30;73.54
59104;BME280;51449;51.676;5.812;2023-11-19T10:45:44;100810.63;;;14.31;73.16
59104;BME280;51449;51.676;5.812;2023-11-19T10:48:07;100807.66;;;14.24;73.50
59104;BME280;51449;51.676;5.812;2023-11-19T10:50:29;100803.81;;;14.29;73.61
59104;BME280;51449;51.676;5.812;2023-11-19T10:52:56;100794.78;;;14.32;73.40
59104;BME280;51449;51.676;5.812;2023-11-19T10:55:27;100798.00;;;14.34;73.44
59104;BME280;51449;51.676;5.812;2023-11-19T10:57:51;100801.34;;;14.43;73.63
59104;BME280;51449;51.676;5.812;2023-11-19T11:00:19;100793.66;;;14.52;73.04
59104;BME280;51449;51.676;5.812;2023-11-19T11:02:47;100788.09;;;14.52;72.20
59104;BME280;51449;51.676;5.812;2023-11-19T11:05:14;100790.56;;;14.54;71.98
59104;BME280;51449;51.676;5.812;2023-11-19T11:07:36;100785.88;;;14.58;72.38
59104;BME280;51449;51.676;5.812;2023-11-19T11:10:02;100790.34;;;14.63;72.36
59104;BME280;51449;51.676;5.812;2023-11-19T11:12:28;100785.09;;;14.58;72.00
59104;BME280;51449;51.676;5.812;2023-11-19T11:14:53;100790.19;;;14.55;72.07
59104;BME280;51449;51.676;5.812;2023-11-19T11:17:17;100794.56;;;14.57;72.37
59104;BME280;51449;51.676;5.812;2023-11-19T11:19:41;100792.53;;;14.53;72.10
59104;BME280;51449;51.676;5.812;2023-11-19T11:22:05;100782.56;;;14.52;71.93
59104;BME280;51449;51.676;5.812;2023-11-19T11:30:53;100770.06;;;14.59;72.10
59104;BME280;51449;51.676;5.812;2023-11-19T11:34:00;100762.03;;;14.53;71.95
59104;BME280;51449;51.676;5.812;2023-11-19T11:36:55;100752.34;;;14.47;71.50
59104;BME280;51449;51.676;5.812;2023-11-19T11:39:29;100756.84;;;14.36;71.42
59104;BME280;51449;51.676;5.812;2023-11-19T11:45:03;100766.50;;;14.42;71.82
59104;BME280;51449;51.676;5.812;2023-11-19T11:50:18;100765.31;;;14.43;72.26
59104;BME280;51449;51.676;5.812;2023-11-19T11:55:37;100760.97;;;14.42;72.45
59104;BME280;51449;51.676;5.812;2023-11-19T11:58:28;100768.31;;;14.34;71.76
59104;BME280;51449;51.676;5.812;2023-11-19T12:00:57;100761.81;;;14.27;71.51
59104;BME280;51449;51.676;5.812;2023-11-19T12:03:22;100764.13;;;14.25;72.13
59104;BME280;51449;51.676;5.812;2023-11-19T12:05:45;100758.13;;;14.23;72.34
59104;BME280;51449;51.676;5.812;2023-11-19T12:08:14;100757.69;;;14.21;72.90
59104;BME280;51449;51.676;5.812;2023-11-19T12:10:45;100759.81;;;14.27;73.29
59104;BME280;51449;51.676;5.812;2023-11-19T12:13:19;100753.09;;;14.28;73.09
59104;BME280;51449;51.676;5.812;2023-11-19T12:18:19;100751.88;;;14.26;72.88
59104;BME280;51449;51.676;5.812;2023-11-19T12:20:41;100755.72;;;14.21;72.83
59104;BME280;51449;51.676;5.812;2023-11-19T12:23:04;100754.91;;;14.21;72.94
59104;BME280;51449;51.676;5.812;2023-11-19T12:25:34;100749.31;;;14.17;73.17
59104;BME280;51449;51.676;5.812;2023-11-19T12:27:56;100754.28;;;14.11;73.30
59104;BME280;51449;51.676;5.812;2023-11-19T12:30:24;100750.66;;;14.07;73.47
59104;BME280;51449;51.676;5.812;2023-11-19T12:32:48;100744.94;;;14.00;73.88
59104;BME280;51449;51.676;5.812;2023-11-19T12:35:12;100751.09;;;13.94;74.16
59104;BME280;51449;51.676;5.812;2023-11-19T12:37:39;100755.06;;;13.93;74.55
59104;BME280;51449;51.676;5.812;2023-11-19T12:40:11;100753.59;;;13.99;74.43
59104;BME280;51449;51.676;5.812;2023-11-19T12:42:36;100759.25;;;14.02;73.80
59104;BME280;51449;51.676;5.812;2023-11-19T12:44:58;100758.53;;;14.05;74.10
59104;BME280;51449;51.676;5.812;2023-11-19T12:47:21;100757.44;;;14.10;74.02
59104;BME280;51449;51.676;5.812;2023-11-19T12:49:43;100751.63;;;14.15;74.12